Time;durP1;ratioP1;P1;durP2;ratioP2;P2;SDS_P1;SDS_P2;PMS_P1;PMS_P2;Temp;Humidity;BMP_temperature;BMP_pressure;BME280_temperature;BME280_humidity;BME280_pressure;Samples;Min_cycle;Max_cycle;Signal;HPM_P1;HPM_P2
2023/03/24 00:01:45;;;;;;;21.80;15.60;;;11.40;99.90;;;;;;5057030;28;20041;-69
2023/03/24 00:04:13;;;;;;;26.95;16.08;;;11.40;99.90;;;;;;5057164;28;20041;-70
2023/03/24 00:06:43;;;;;;;28.52;17.15;;;11.40;99.90;;;;;;5038893;28;20048;-69
2023/03/24 00:09:10;;;;;;;26.67;17.48;;;11.30;99.90;;;;;;5050472;28;20041;-70
2023/03/24 00:11:38;;;;;;;27.13;18.85;;;11.20;99.90;;;;;;5045721;28;20406;-69
2023/03/24 00:14:05;;;;;;;31.23;19.83;;;11.30;99.90;;;;;;5050342;28;20034;-69
2023/03/24 00:16:33;;;;;;;29.75;19.38;;;11.30;99.90;;;;;;5029478;28;20044;-70
2023/03/24 00:19:01;;;;;;;28.27;19.40;;;11.30;99.90;;;;;;5022126;28;20045;-70
2023/03/24 00:21:28;;;;;;;34.28;20.20;;;11.00;99.90;;;;;;5052636;28;20041;-70
2023/03/24 00:23:57;;;;;;;29.50;19.20;;;11.00;99.90;;;;;;5059901;28;20041;-70
2023/03/24 00:26:25;;;;;;;29.40;19.70;;;11.10;99.90;;;;;;5045613;28;20053;-68
2023/03/24 00:28:53;;;;;;;28.73;18.88;;;11.20;99.90;;;;;;5039477;28;20037;-68
2023/03/24 00:31:21;;;;;;;26.50;18.45;;;11.20;99.90;;;;;;5047860;28;20041;-70
2023/03/24 00:34:07;;;;;;;33.10;19.38;;;11.20;99.90;;;;;;5037910;28;20399;-69
2023/03/24 00:36:35;;;;;;;26.75;19.23;;;11.20;99.90;;;;;;5025429;28;20041;-70
2023/03/24 00:39:03;;;;;;;31.20;19.42;;;11.10;99.90;;;;;;5053215;28;20041;-69
2023/03/24 00:41:31;;;;;;;26.65;17.95;;;11.10;99.90;;;;;;5052584;28;20086;-70
2023/03/24 00:44:02;;;;;;;28.05;18.33;;;11.10;99.90;;;;;;5049538;28;20038;-68
2023/03/24 00:46:29;;;;;;;25.77;17.98;;;11.10;99.90;;;;;;5044886;28;20474;-69
2023/03/24 00:49:10;;;;;;;21.35;16.60;;;11.20;99.90;;;;;;5048601;28;20033;-70
2023/03/24 00:51:57;;;;;;;27.83;18.17;;;11.10;99.90;;;;;;5036464;28;21364;-70
2023/03/24 00:54:42;;;;;;;26.83;16.85;;;10.90;99.90;;;;;;5041815;28;20376;-70
2023/03/24 00:57:11;;;;;;;24.48;17.73;;;10.90;99.90;;;;;;5048235;28;20041;-70
2023/03/24 00:59:41;;;;;;;24.33;17.77;;;10.90;99.90;;;;;;5053209;28;20044;-70
2023/03/24 01:02:11;;;;;;;24.20;16.88;;;10.90;99.90;;;;;;5019403;28;20044;-69
2023/03/24 01:04:39;;;;;;;;;;;10.80;99.90;;;;;;5034095;28;20448;-70
2023/03/24 01:07:09;;;;;;;23.88;16.35;;;10.80;99.90;;;;;;5045389;28;19921;-69
2023/03/24 01:09:37;;;;;;;23.70;15.15;;;10.90;99.90;;;;;;5043837;28;20067;-71
2023/03/24 01:12:05;;;;;;;20.00;15.27;;;10.70;99.90;;;;;;5046002;28;20131;-70
2023/03/24 01:14:33;;;;;;;20.20;15.48;;;10.30;99.90;;;;;;5032648;28;20048;-71
2023/03/24 01:17:00;;;;;;;22.88;16.52;;;9.90;99.90;;;;;;5038679;28;20388;-71
2023/03/24 01:19:28;;;;;;;26.77;16.27;;;9.80;99.90;;;;;;5051872;28;20407;-70
2023/03/24 01:21:55;;;;;;;21.20;14.70;;;9.70;99.90;;;;;;5022005;28;20462;-70
2023/03/24 01:24:24;;;;;;;19.88;15.18;;;9.80;99.90;;;;;;5051451;28;20052;-71
2023/03/24 01:26:52;;;;;;;23.23;16.10;;;9.90;99.90;;;;;;5046526;28;20053;-70
2023/03/24 01:29:19;;;;;;;23.92;16.00;;;9.90;99.90;;;;;;5051076;28;20053;-71
2023/03/24 01:31:47;;;;;;;21.80;15.63;;;10.10;99.90;;;;;;5041839;28;20056;-69
2023/03/24 01:34:14;;;;;;;26.95;16.52;;;10.30;99.90;;;;;;5058345;28;20044;-70
2023/03/24 01:36:41;;;;;;;19.42;15.35;;;10.30;99.90;;;;;;5043697;28;20045;-70
2023/03/24 01:39:08;;;;;;;22.65;15.70;;;10.00;99.90;;;;;;5067507;28;20048;-70
2023/03/24 01:41:38;;;;;;;18.00;13.45;;;10.20;99.90;;;;;;5053390;28;20048;-69
2023/03/24 01:44:31;;;;;;;17.88;13.82;;;10.20;99.90;;;;;;5048914;28;20037;-69
2023/03/24 01:46:59;;;;;;;;;;;10.30;99.90;;;;;;5054701;28;20041;-69
2023/03/24 01:49:54;;;;;;;18.25;12.77;;;10.00;99.90;;;;;;5065579;28;19944;-71
2023/03/24 01:52:31;;;;;;;20.52;13.60;;;10.10;99.90;;;;;;5041045;28;20055;-69
2023/03/24 01:55:09;;;;;;;20.45;13.45;;;9.80;99.90;;;;;;5042587;28;20454;-68
2023/03/24 01:57:41;;;;;;;20.90;13.18;;;10.00;99.90;;;;;;5066506;28;20032;-69
2023/03/24 02:00:12;;;;;;;21.88;13.30;;;10.10;99.90;;;;;;5052487;28;20049;-69
2023/03/24 02:02:44;;;;;;;22.33;15.07;;;10.10;99.90;;;;;;5071497;28;20075;-71
2023/03/24 02:05:13;;;;;;;26.35;14.93;;;9.90;99.90;;;;;;5071265;28;20028;-68
2023/03/24 02:08:15;;;;;;;24.05;15.43;;;10.00;99.90;;;;;;5071789;28;20047;-70
2023/03/24 02:10:43;;;;;;;24.77;14.65;;;9.70;99.90;;;;;;5041507;28;20423;-70
2023/03/24 02:13:13;;;;;;;18.15;14.27;;;9.30;99.90;;;;;;5036301;28;20048;-68
2023/03/24 02:15:53;;;;;;;20.67;15.25;;;9.50;99.90;;;;;;5053273;28;20068;-67
2023/03/24 02:18:24;;;;;;;22.45;14.98;;;9.60;99.90;;;;;;5071120;28;20074;-68
2023/03/24 02:21:18;;;;;;;20.55;14.18;;;9.60;99.90;;;;;;5033184;28;20446;-70
2023/03/24 02:23:52;;;;;;;19.23;14.02;;;9.50;99.90;;;;;;5022198;28;20052;-69
2023/03/24 02:26:38;;;;;;;19.23;13.35;;;9.10;99.90;;;;;;5049170;28;20072;-68
2023/03/24 02:29:43;;;;;;;18.90;12.07;;;9.00;99.90;;;;;;5040870;28;20064;-69
2023/03/24 02:33:05;;;;;;;17.50;12.95;;;8.90;99.90;;;;;;5033946;28;20392;-70
2023/03/24 02:35:59;;;;;;;21.48;12.25;;;8.80;99.90;;;;;;4993373;28;20048;-69
2023/03/24 02:39:02;;;;;;;17.63;12.82;;;8.70;99.90;;;;;;5028387;28;20047;-68
2023/03/24 02:41:46;;;;;;;18.98;12.02;;;9.20;99.90;;;;;;5007036;28;20079;-69
2023/03/24 02:44:13;;;;;;;18.73;12.02;;;9.60;99.90;;;;;;5052746;28;20049;-70
2023/03/24 02:46:49;;;;;;;20.25;12.57;;;9.50;99.90;;;;;;5029879;28;20483;-69
2023/03/24 02:49:44;;;;;;;15.43;11.85;;;9.40;99.90;;;;;;5057916;28;20501;-69
2023/03/24 02:52:42;;;;;;;18.38;11.70;;;9.50;99.90;;;;;;5070776;28;20345;-70
2023/03/24 02:55:13;;;;;;;;;;;9.50;99.90;;;;;;5055631;28;20432;-68
2023/03/24 02:58:09;;;;;;;;;;;9.30;99.90;;;;;;5051699;28;19971;-69
2023/03/24 03:01:03;;;;;;;16.00;11.77;;;9.20;99.90;;;;;;5031613;28;19908;-69
2023/03/24 03:03:51;;;;;;;15.48;11.73;;;8.90;99.90;;;;;;5065765;28;20049;-68
2023/03/24 03:06:27;;;;;;;17.27;12.15;;;8.40;99.90;;;;;;5052967;28;20080;-67
2023/03/24 03:08:58;;;;;;;18.58;12.90;;;8.40;99.90;;;;;;5070351;28;20037;-69
2023/03/24 03:11:25;;;;;;;14.82;11.98;;;8.70;99.90;;;;;;5070314;28;20048;-69
2023/03/24 03:14:05;;;;;;;17.52;12.63;;;9.00;99.90;;;;;;5058006;28;20037;-68
2023/03/24 03:16:58;;;;;;;20.30;13.07;;;9.00;99.90;;;;;;5070313;28;20044;-67
2023/03/24 03:19:38;;;;;;;17.73;12.60;;;9.30;99.90;;;;;;5069813;28;20127;-68
2023/03/24 03:22:14;;;;;;;15.40;12.73;;;9.20;99.90;;;;;;5038513;28;20408;-68
2023/03/24 03:24:45;;;;;;;18.63;13.05;;;8.90;99.90;;;;;;5049023;28;20044;-71
2023/03/24 03:27:26;;;;;;;17.58;13.32;;;9.10;99.90;;;;;;5070180;28;20048;-68
2023/03/24 03:30:05;;;;;;;23.25;14.25;;;9.10;99.90;;;;;;5057256;28;20033;-67
2023/03/24 03:32:37;;;;;;;19.88;14.15;;;9.30;99.90;;;;;;5052131;28;20106;-68
2023/03/24 03:35:28;;;;;;;21.65;15.15;;;9.30;99.90;;;;;;5070316;28;20075;-69
2023/03/24 03:38:24;;;;;;;22.45;15.68;;;9.20;99.90;;;;;;5040225;28;20024;-67
2023/03/24 03:40:58;;;;;;;21.17;16.35;;;9.00;99.90;;;;;;5035515;28;20044;-69
2023/03/24 03:43:26;;;;;;;26.88;18.42;;;9.00;99.90;;;;;;5045097;28;20506;-70
2023/03/24 03:45:54;;;;;;;32.42;19.08;;;9.10;99.90;;;;;;5051715;28;20040;-69
2023/03/24 03:48:25;;;;;;;29.15;19.27;;;8.90;99.90;;;;;;5063438;28;20071;-68
2023/03/24 03:51:10;;;;;;;28.80;19.33;;;8.90;99.90;;;;;;5050230;28;20610;-70
2023/03/24 03:54:04;;;;;;;31.48;19.75;;;8.80;99.90;;;;;;5050995;28;20533;-70
2023/03/24 03:56:34;;;;;;;32.03;19.83;;;8.80;99.90;;;;;;5060266;28;20086;-69
2023/03/24 03:59:02;;;;;;;;;;;8.80;99.90;;;;;;5032206;28;20056;-69
2023/03/24 04:01:35;;;;;;;29.02;19.40;;;8.60;99.90;;;;;;5043578;28;19925;-69
2023/03/24 04:04:41;;;;;;;28.98;20.27;;;8.50;99.90;;;;;;5040297;28;20036;-71
2023/03/24 04:07:41;;;;;;;30.90;20.15;;;8.70;99.90;;;;;;5069374;28;20115;-69
2023/03/24 04:10:23;;;;;;;29.75;20.02;;;8.90;99.90;;;;;;5055140;28;21154;-69
2023/03/24 04:13:18;;;;;;;28.88;20.13;;;8.90;99.90;;;;;;5074136;28;20040;-69
2023/03/24 04:15:56;;;;;;;28.00;19.50;;;8.60;99.90;;;;;;5042137;28;20033;-70
2023/03/24 04:18:58;;;;;;;28.73;18.58;;;8.70;99.90;;;;;;5053490;28;20040;-71
2023/03/24 04:21:37;;;;;;;23.95;18.05;;;8.80;99.90;;;;;;5073608;28;20076;-68
2023/03/24 04:24:27;;;;;;;22.55;15.38;;;8.60;99.90;;;;;;5056013;28;20041;-68
2023/03/24 04:27:05;;;;;;;27.38;17.08;;;8.20;99.90;;;;;;5035858;28;20385;-70
2023/03/24 04:29:45;;;;;;;30.85;17.65;;;8.50;99.90;;;;;;5038956;28;20040;-68
2023/03/24 04:32:19;;;;;;;21.17;16.73;;;8.50;99.90;;;;;;5055998;28;20525;-70
2023/03/24 04:34:53;;;;;;;26.08;17.15;;;8.10;99.90;;;;;;5035584;28;20094;-70
2023/03/24 04:37:24;;;;;;;21.65;15.82;;;8.20;99.90;;;;;;5031296;28;20436;-70
2023/03/24 04:39:57;;;;;;;20.13;14.93;;;8.30;99.90;;;;;;5035905;28;20045;-69
2023/03/24 04:42:31;;;;;;;24.35;16.17;;;8.30;99.90;;;;;;5048703;28;20040;-70
2023/03/24 04:45:00;;;;;;;20.67;15.10;;;8.10;99.90;;;;;;5047502;28;20404;-70
2023/03/24 04:47:30;;;;;;;23.38;14.93;;;8.30;99.90;;;;;;5054164;28;20059;-71
2023/03/24 04:50:03;;;;;;;15.90;11.70;;;8.50;99.90;;;;;;5053595;28;20041;-70
2023/03/24 04:52:31;;;;;;;16.00;12.35;;;8.60;99.90;;;;;;5043226;28;20040;-70
2023/03/24 04:54:59;;;;;;;16.27;12.27;;;8.10;99.90;;;;;;5035504;28;20056;-70
2023/03/24 04:57:27;;;;;;;15.07;12.82;;;8.00;99.90;;;;;;5069914;28;20047;-69
2023/03/24 04:59:54;;;;;;;17.13;12.20;;;8.30;99.90;;;;;;5038738;28;20071;-70
2023/03/24 05:02:21;;;;;;;19.67;13.07;;;8.30;99.90;;;;;;5054206;28;20048;-70
2023/03/24 05:04:48;;;;;;;20.65;12.82;;;8.50;99.90;;;;;;5072918;28;20040;-69
2023/03/24 05:07:16;;;;;;;21.83;13.75;;;8.60;99.90;;;;;;5072714;28;20066;-70
2023/03/24 05:09:43;;;;;;;18.55;13.18;;;8.70;99.90;;;;;;5055368;28;20070;-70
2023/03/24 05:12:11;;;;;;;24.67;15.93;;;8.60;99.90;;;;;;5073409;28;20044;-69
2023/03/24 05:14:56;;;;;;;26.27;15.02;;;8.70;99.90;;;;;;5041585;28;20029;-69
2023/03/24 05:17:23;;;;;;;20.50;15.23;;;8.70;99.90;;;;;;5064118;28;20125;-69
2023/03/24 05:19:51;;;;;;;23.45;16.20;;;8.40;99.90;;;;;;5055004;28;20440;-70
2023/03/24 05:22:18;;;;;;;28.67;17.73;;;8.50;99.90;;;;;;5054904;28;20071;-71
2023/03/24 05:24:45;;;;;;;33.03;17.95;;;8.30;99.90;;;;;;5039437;28;20041;-67
2023/03/24 05:27:13;;;;;;;29.90;18.77;;;8.40;99.90;;;;;;5039162;28;20045;-70
2023/03/24 05:29:40;;;;;;;29.55;19.42;;;8.30;99.90;;;;;;5031583;28;20052;-72
2023/03/24 05:32:07;;;;;;;36.15;22.40;;;8.30;99.90;;;;;;5046041;28;20033;-69
2023/03/24 05:34:34;;;;;;;33.13;19.40;;;8.50;99.90;;;;;;5051102;28;20040;-69
2023/03/24 05:37:02;;;;;;;31.27;20.48;;;8.80;99.90;;;;;;5039653;28;20046;-68
2023/03/24 05:39:29;;;;;;;28.13;17.63;;;8.80;99.90;;;;;;5052345;28;20502;-69
2023/03/24 05:41:57;;;;;;;22.23;16.92;;;8.70;99.90;;;;;;5040633;28;20136;-68
2023/03/24 05:44:24;;;;;;;26.33;16.50;;;8.60;99.90;;;;;;5036273;28;20041;-70
2023/03/24 05:46:51;;;;;;;22.95;16.80;;;8.60;99.90;;;;;;5029511;28;20061;-69
2023/03/24 05:49:19;;;;;;;24.20;16.98;;;8.60;99.90;;;;;;5040118;28;20107;-68
2023/03/24 05:51:46;;;;;;;23.90;16.52;;;8.70;99.90;;;;;;5048066;28;20048;-69
2023/03/24 05:54:13;;;;;;;159.77;91.30;;;8.90;99.90;;;;;;5036623;28;20064;-69
2023/03/24 05:56:41;;;;;;;96.57;55.63;;;9.00;99.90;;;;;;5043341;28;20052;-70
2023/03/24 05:59:10;;;;;;;34.58;24.77;;;9.30;99.90;;;;;;5033493;28;20045;-70
2023/03/24 06:01:57;;;;;;;25.17;18.23;;;9.30;99.90;;;;;;5038067;28;20126;-70
2023/03/24 06:04:28;;;;;;;20.08;15.73;;;9.40;99.90;;;;;;5037108;28;20098;-70
2023/03/24 06:06:59;;;;;;;20.13;15.10;;;9.50;99.90;;;;;;5048429;28;20038;-69
2023/03/24 06:09:28;;;;;;;23.85;16.20;;;9.60;99.90;;;;;;5031157;28;20053;-71
2023/03/24 06:11:56;;;;;;;23.10;15.60;;;9.60;99.90;;;;;;5048038;28;20048;-69
2023/03/24 06:14:23;;;;;;;23.42;16.40;;;9.70;99.90;;;;;;5050231;28;20052;-70
2023/03/24 06:16:50;;;;;;;21.20;15.48;;;9.30;99.90;;;;;;5040306;28;20400;-71
2023/03/24 06:19:23;;;;;;;68.35;38.42;;;9.60;99.90;;;;;;5036402;28;20489;-69
2023/03/24 06:21:51;;;;;;;44.63;27.95;;;10.10;99.90;;;;;;5048710;28;20045;-71
2023/03/24 06:24:19;;;;;;;220.05;110.78;;;9.80;99.90;;;;;;5029700;28;20147;-72
2023/03/24 06:26:50;;;;;;;44.53;31.10;;;10.00;99.90;;;;;;5033842;28;20144;-70
2023/03/24 06:29:21;;;;;;;24.88;18.38;;;10.10;99.90;;;;;;5018755;28;20045;-70
2023/03/24 06:31:48;;;;;;;21.88;16.98;;;10.20;99.90;;;;;;5040667;28;20033;-70
2023/03/24 06:34:17;;;;;;;30.15;17.13;;;10.20;99.90;;;;;;5043245;28;20136;-70
2023/03/24 06:36:45;;;;;;;28.95;17.60;;;10.10;99.90;;;;;;5032997;28;20041;-70
2023/03/24 06:39:12;;;;;;;29.48;17.98;;;10.20;99.90;;;;;;5033708;28;20053;-70
2023/03/24 06:41:39;;;;;;;24.60;17.05;;;10.20;99.90;;;;;;5032044;28;20042;-69
2023/03/24 06:44:06;;;;;;;26.05;17.98;;;10.40;99.90;;;;;;5043969;28;20037;-70
2023/03/24 06:46:51;;;;;;;111.88;62.08;;;10.30;99.90;;;;;;5028638;28;20028;-69
2023/03/24 06:49:19;;;;;;;36.25;25.42;;;10.60;99.90;;;;;;5032433;28;20061;-71
2023/03/24 06:51:46;;;;;;;38.65;22.13;;;10.50;99.90;;;;;;5031038;28;20033;-71
2023/03/24 06:54:13;;;;;;;35.25;21.02;;;10.60;99.90;;;;;;5045608;28;20056;-71
2023/03/24 06:56:41;;;;;;;39.28;22.83;;;10.80;99.90;;;;;;5042533;28;20389;-72
2023/03/24 06:59:09;;;;;;;29.42;20.48;;;11.10;99.90;;;;;;5037555;28;20450;-70
2023/03/24 07:01:38;;;;;;;34.15;20.75;;;11.30;99.90;;;;;;5048363;28;20056;-71
2023/03/24 07:04:06;;;;;;;52.08;21.25;;;11.30;99.90;;;;;;5030012;28;20033;-70
2023/03/24 07:06:33;;;;;;;31.33;19.83;;;11.50;99.90;;;;;;5029865;28;20029;-70
2023/03/24 07:09:12;;;;;;;35.00;21.15;;;11.30;99.90;;;;;;5035802;28;20049;-70
2023/03/24 07:11:40;;;;;;;35.00;21.15;;;11.20;99.90;;;;;;5046611;28;20041;-70
2023/03/24 07:14:07;;;;;;;29.52;20.52;;;11.10;99.90;;;;;;5028581;28;20034;-69
2023/03/24 07:16:35;;;;;;;38.22;23.08;;;11.10;99.90;;;;;;5030645;28;20124;-69
2023/03/24 07:19:02;;;;;;;29.58;21.35;;;11.30;99.90;;;;;;5039923;28;20033;-70
2023/03/24 07:21:30;;;;;;;35.30;21.08;;;11.60;99.90;;;;;;5034996;28;20286;-70
2023/03/24 07:23:57;;;;;;;35.53;21.92;;;11.50;99.90;;;;;;5029949;28;20049;-70
2023/03/24 07:26:27;;;;;;;32.35;22.27;;;11.80;99.90;;;;;;5047152;28;20044;-70
2023/03/24 07:28:54;;;;;;;31.58;20.48;;;11.70;99.90;;;;;;5070623;28;20070;-70
2023/03/24 07:31:23;;;;;;;34.30;20.80;;;11.50;99.90;;;;;;5056797;28;20439;-70
2023/03/24 07:33:50;;;;;;;28.10;20.92;;;11.70;99.90;;;;;;5069678;28;20068;-70
2023/03/24 07:36:17;;;;;;;28.25;20.60;;;11.80;99.90;;;;;;5034353;28;20041;-71
2023/03/24 07:38:45;;;;;;;32.80;20.90;;;11.90;99.90;;;;;;5050626;28;20467;-70
2023/03/24 07:41:12;;;;;;;30.70;21.25;;;12.00;99.90;;;;;;5051124;28;20128;-70
2023/03/24 07:43:40;;;;;;;29.75;20.05;;;12.00;99.90;;;;;;5041782;28;20045;-69
2023/03/24 07:46:07;;;;;;;32.33;21.50;;;11.90;99.90;;;;;;5054898;28;20037;-70
2023/03/24 07:48:52;;;;;;;30.52;19.55;;;11.80;99.90;;;;;;5035974;28;20035;-72
2023/03/24 07:51:19;;;;;;;32.05;19.25;;;11.90;99.90;;;;;;5055065;28;20045;-69
2023/03/24 07:53:46;;;;;;;29.65;20.27;;;12.10;99.90;;;;;;5071011;28;20042;-70
2023/03/24 07:56:14;;;;;;;29.95;19.80;;;12.30;99.90;;;;;;5061781;28;20040;-70
2023/03/24 07:58:59;;;;;;;31.27;19.05;;;12.40;99.90;;;;;;5073620;28;20024;-71
2023/03/24 08:01:26;;;;;;;32.92;19.77;;;12.60;99.90;;;;;;5074594;28;20051;-70
2023/03/24 08:03:54;;;;;;;29.40;20.45;;;12.70;99.90;;;;;;5073893;28;20139;-70
2023/03/24 08:06:22;;;;;;;34.67;20.92;;;12.80;99.90;;;;;;5056396;28;20050;-70
2023/03/24 08:08:50;;;;;;;30.77;19.85;;;12.70;99.90;;;;;;5073956;28;20204;-70
2023/03/24 08:11:17;;;;;;;28.55;18.73;;;12.90;99.90;;;;;;5062013;28;20044;-71
2023/03/24 08:13:44;;;;;;;31.58;19.50;;;13.00;99.90;;;;;;5059315;28;20040;-71
2023/03/24 08:16:12;;;;;;;31.98;19.63;;;12.90;99.90;;;;;;5055914;28;20361;-71
2023/03/24 08:18:39;;;;;;;27.13;18.70;;;13.20;99.90;;;;;;5073675;28;20072;-70
2023/03/24 08:21:06;;;;;;;32.35;18.83;;;13.30;99.90;;;;;;5073715;28;20054;-70
2023/03/24 08:23:35;;;;;;;28.73;18.65;;;13.50;99.90;;;;;;5067071;28;20041;-70
2023/03/24 08:26:03;;;;;;;33.65;18.35;;;13.70;99.90;;;;;;5036764;28;20084;-69
2023/03/24 08:28:30;;;;;;;31.50;19.27;;;13.60;99.90;;;;;;5054411;28;20088;-70
2023/03/24 08:30:57;;;;;;;27.05;18.45;;;13.60;99.90;;;;;;5055566;28;20381;-71
2023/03/24 08:33:25;;;;;;;26.63;18.77;;;13.50;99.90;;;;;;5066137;28;20381;-70
2023/03/24 08:35:56;;;;;;;24.27;17.55;;;13.50;99.90;;;;;;5049752;28;20037;-71
2023/03/24 08:38:29;;;;;;;22.98;16.55;;;14.00;99.90;;;;;;5064388;28;20040;-70
2023/03/24 08:41:05;;;;;;;20.20;15.15;;;13.90;99.90;;;;;;5056889;28;20043;-71
2023/03/24 08:43:35;;;;;;;22.02;14.63;;;14.20;99.90;;;;;;5055332;28;20472;-70
2023/03/24 08:46:05;;;;;;;19.80;14.63;;;14.40;99.90;;;;;;5054819;28;20112;-71
2023/03/24 08:48:35;;;;;;;20.92;14.02;;;14.50;99.90;;;;;;5057149;28;20045;-71
2023/03/24 08:51:13;;;;;;;25.25;15.27;;;14.50;99.90;;;;;;5055057;28;20266;-71
2023/03/24 08:53:41;;;;;;;21.52;14.45;;;14.70;99.90;;;;;;5056019;28;20039;-71
2023/03/24 08:56:09;;;;;;;23.30;16.33;;;14.80;99.90;;;;;;5053574;28;20033;-69
2023/03/24 08:58:37;;;;;;;27.83;16.95;;;14.90;99.90;;;;;;5048406;28;20056;-71
2023/03/24 09:01:04;;;;;;;25.60;17.58;;;14.80;99.90;;;;;;5053428;28;20035;-71
2023/03/24 09:03:31;;;;;;;22.42;15.75;;;15.00;99.90;;;;;;5048540;28;20052;-72
2023/03/24 09:05:59;;;;;;;25.58;18.65;;;15.20;99.90;;;;;;5053764;28;20037;-72
2023/03/24 09:08:27;;;;;;;25.80;16.90;;;15.40;99.90;;;;;;5053543;28;20071;-71
2023/03/24 09:11:17;;;;;;;23.92;15.68;;;15.20;99.90;;;;;;5053445;28;20025;-71
2023/03/24 09:13:45;;;;;;;24.15;16.58;;;15.30;99.90;;;;;;5058900;28;20044;-70
2023/03/24 09:16:12;;;;;;;26.25;15.95;;;15.60;99.90;;;;;;5060418;28;20037;-70
2023/03/24 09:18:42;;;;;;;23.10;15.43;;;15.70;99.90;;;;;;5066142;28;20037;-70
2023/03/24 09:21:27;;;;;;;21.58;15.32;;;15.60;99.90;;;;;;5037163;28;20024;-69
2023/03/24 09:24:13;;;;;;;22.30;15.63;;;15.80;99.90;;;;;;5053350;28;20037;-71
2023/03/24 09:26:40;;;;;;;23.42;13.82;;;15.80;99.90;;;;;;5054172;28;20132;-70
2023/03/24 09:29:07;;;;;;;19.38;13.32;;;15.80;99.90;;;;;;5053124;28;20400;-70
2023/03/24 09:31:35;;;;;;;17.98;12.82;;;16.00;99.90;;;;;;5053418;28;20041;-70
2023/03/24 09:34:02;;;;;;;18.23;12.52;;;16.10;98.50;;;;;;5066530;28;20510;-70
2023/03/24 09:36:30;;;;;;;16.95;12.20;;;16.20;97.90;;;;;;5052836;28;20116;-71
2023/03/24 09:38:57;;;;;;;22.55;12.50;;;16.40;97.40;;;;;;5065647;28;20395;-70
2023/03/24 09:41:30;;;;;;;19.27;11.23;;;16.50;97.20;;;;;;5035705;28;20377;-70
2023/03/24 09:44:08;;;;;;;16.10;11.52;;;16.90;96.20;;;;;;5022045;28;20052;-71
2023/03/24 09:46:45;;;;;;;27.77;12.20;;;17.10;95.80;;;;;;5071888;28;20044;-70
2023/03/24 09:49:17;;;;;;;15.35;11.35;;;17.40;95.20;;;;;;5070956;28;20053;-69
2023/03/24 09:51:45;;;;;;;18.60;11.38;;;17.50;93.40;;;;;;5063657;28;20043;-70
2023/03/24 09:54:15;;;;;;;22.17;11.85;;;17.20;92.80;;;;;;5052372;28;20131;-71
2023/03/24 09:56:45;;;;;;;19.80;12.23;;;17.30;93.20;;;;;;5061442;28;20037;-70
2023/03/24 09:59:38;;;;;;;18.30;11.50;;;17.50;92.50;;;;;;5055908;28;20045;-69
2023/03/24 10:02:17;;;;;;;14.38;10.23;;;17.60;92.90;;;;;;5059322;28;20101;-70
2023/03/24 10:05:10;;;;;;;14.80;9.80;;;17.10;91.50;;;;;;5058950;28;20040;-70
2023/03/24 10:07:55;;;;;;;14.80;9.98;;;17.60;91.90;;;;;;5059454;28;20157;-71
2023/03/24 10:10:41;;;;;;;15.45;9.93;;;18.10;91.10;;;;;;5035874;28;20051;-71
2023/03/24 10:13:38;;;;;;;13.35;10.18;;;18.10;89.60;;;;;;5053361;28;20504;-72
2023/03/24 10:16:15;;;;;;;13.60;9.77;;;17.90;86.40;;;;;;5039049;28;20422;-70
2023/03/24 10:18:55;;;;;;;15.35;9.88;;;18.00;87.20;;;;;;5052271;28;20476;-70
2023/03/24 10:21:27;;;;;;;19.27;10.52;;;18.30;86.60;;;;;;5047156;28;20059;-68
2023/03/24 10:24:23;;;;;;;15.95;11.23;;;18.60;89.20;;;;;;5044680;28;20045;-68
2023/03/24 10:27:28;;;;;;;16.55;11.00;;;18.70;86.10;;;;;;5034567;28;20546;-68
2023/03/24 10:30:03;;;;;;;15.68;9.07;;;18.40;83.00;;;;;;5053234;28;20041;-71
2023/03/24 10:32:34;;;;;;;13.95;9.57;;;18.40;81.60;;;;;;5065493;28;20472;-70
2023/03/24 10:35:08;;;;;;;15.48;9.85;;;18.30;83.00;;;;;;5044744;28;20128;-69
2023/03/24 10:37:36;;;;;;;13.73;8.68;;;18.40;79.10;;;;;;5053598;28;20118;-70
2023/03/24 10:40:21;;;;;;;14.60;9.13;;;18.70;79.70;;;;;;5034077;28;20038;-71
2023/03/24 10:42:49;;;;;;;12.75;8.77;;;19.10;80.00;;;;;;5068787;28;20396;-70
2023/03/24 10:45:35;;;;;;;14.32;8.63;;;19.30;78.50;;;;;;5057135;28;20495;-71
2023/03/24 10:48:03;;;;;;;12.57;8.33;;;19.40;78.40;;;;;;5051232;28;20048;-68
2023/03/24 10:50:34;;;;;;;12.07;8.85;;;19.60;77.50;;;;;;5022595;28;20045;-72
2023/03/24 10:53:22;;;;;;;12.15;8.45;;;19.60;78.20;;;;;;5038714;28;20037;-67
2023/03/24 10:55:50;;;;;;;12.90;8.55;;;19.90;76.40;;;;;;5070971;28;20036;-71
2023/03/24 10:58:29;;;;;;;11.90;8.95;;;19.90;75.60;;;;;;5059876;28;20045;-68
2023/03/24 11:00:59;;;;;;;10.82;7.40;;;19.80;73.80;;;;;;5053610;28;20079;-70
2023/03/24 11:03:30;;;;;;;12.82;8.23;;;20.00;72.90;;;;;;5069729;28;20044;-66
2023/03/24 11:06:03;;;;;;;12.60;8.13;;;20.00;72.60;;;;;;5037552;28;20036;-67
2023/03/24 11:08:36;;;;;;;12.60;7.45;;;20.10;72.70;;;;;;5060511;28;20048;-69
2023/03/24 11:11:25;;;;;;;10.85;7.35;;;20.10;73.60;;;;;;5033321;28;20049;-68
2023/03/24 11:13:58;;;;;;;10.20;7.90;;;20.40;73.10;;;;;;5042284;28;20425;-69
2023/03/24 11:16:31;;;;;;;11.95;8.45;;;21.20;72.20;;;;;;5051493;28;20404;-69
2023/03/24 11:19:04;;;;;;;9.75;6.82;;;21.10;70.60;;;;;;5045408;28;20102;-68
2023/03/24 11:21:37;;;;;;;9.93;6.85;;;21.20;70.90;;;;;;5059165;28;20498;-69
2023/03/24 11:24:14;;;;;;;9.23;7.30;;;21.30;71.10;;;;;;5025361;28;20063;-69
2023/03/24 11:27:03;;;;;;;11.25;7.78;;;21.30;71.10;;;;;;5048808;28;20061;-71
2023/03/24 11:29:38;;;;;;;11.07;6.85;;;21.20;71.70;;;;;;5026293;28;20396;-69
2023/03/24 11:32:33;;;;;;;11.60;7.93;;;21.40;71.60;;;;;;5024485;28;20037;-68
2023/03/24 11:35:06;;;;;;;9.05;6.65;;;21.40;70.20;;;;;;5025707;28;20053;-69
2023/03/24 11:37:40;;;;;;;7.95;6.20;;;21.40;69.30;;;;;;5023089;28;20042;-70
2023/03/24 11:40:22;;;;;;;11.77;6.95;;;21.10;69.10;;;;;;5041028;28;20040;-70
2023/03/24 11:43:02;;;;;;;8.55;6.10;;;21.20;70.20;;;;;;5014012;28;20444;-70
2023/03/24 11:45:34;;;;;;;8.33;6.53;;;21.10;68.90;;;;;;5035390;28;20150;-71
2023/03/24 11:48:26;;;;;;;9.38;6.30;;;21.40;69.90;;;;;;5039576;28;20039;-69
2023/03/24 11:50:57;;;;;;;10.68;6.47;;;21.70;66.40;;;;;;5047240;28;20059;-71
2023/03/24 11:53:38;;;;;;;8.40;6.30;;;22.20;66.30;;;;;;5039722;28;20048;-70
2023/03/24 11:56:14;;;;;;;12.30;6.75;;;22.60;65.50;;;;;;5036363;28;20064;-72
2023/03/24 11:58:46;;;;;;;9.35;6.47;;;22.30;66.60;;;;;;5047891;28;20037;-71
2023/03/24 12:01:20;;;;;;;10.23;6.85;;;22.70;65.50;;;;;;5040448;28;20076;-71
2023/03/24 12:04:05;;;;;;;9.60;6.53;;;22.50;65.60;;;;;;5037150;28;20033;-70
2023/03/24 12:06:48;;;;;;;8.88;5.82;;;22.80;65.50;;;;;;5033448;28;20053;-71
2023/03/24 12:09:39;;;;;;;10.65;6.15;;;23.50;64.60;;;;;;5043453;28;20120;-72
2023/03/24 12:12:27;;;;;;;10.80;5.82;;;23.30;60.90;;;;;;5030184;28;20129;-72
2023/03/24 12:15:03;;;;;;;8.20;5.07;;;23.90;59.90;;;;;;5032266;28;20037;-72
2023/03/24 12:18:15;;;;;;;7.97;5.55;;;27.10;55.30;;;;;;5032796;28;20088;-71
2023/03/24 12:21:03;;;;;;;8.82;5.07;;;29.20;50.80;;;;;;5031496;28;20045;-73
2023/03/24 12:23:58;;;;;;;7.97;5.88;;;29.30;50.00;;;;;;5049072;28;20041;-74
2023/03/24 12:26:27;;;;;;;8.38;5.78;;;29.30;49.30;;;;;;5027732;28;20050;-70
2023/03/24 12:29:34;;;;;;;7.38;5.15;;;30.20;48.40;;;;;;5031289;28;20076;-70
2023/03/24 12:32:14;;;;;;;9.95;5.40;;;30.20;48.20;;;;;;5016859;28;20733;-72
2023/03/24 12:34:47;;;;;;;8.55;5.68;;;30.30;47.50;;;;;;5050252;28;20040;-72
2023/03/24 12:37:36;;;;;;;9.68;5.15;;;29.80;48.80;;;;;;5038189;28;20041;-72
2023/03/24 12:40:08;;;;;;;7.18;5.10;;;29.70;48.20;;;;;;5041392;28;20052;-71
2023/03/24 12:42:40;;;;;;;12.85;5.90;;;29.80;47.40;;;;;;5049733;28;20037;-71
2023/03/24 12:45:28;;;;;;;9.10;5.45;;;30.10;47.30;;;;;;5040490;28;20033;-71
2023/03/24 12:48:04;;;;;;;7.22;5.03;;;30.40;46.30;;;;;;5043403;28;20041;-74
2023/03/24 12:51:00;;;;;;;9.40;6.53;;;30.20;47.10;;;;;;5035707;28;20508;-71
2023/03/24 12:53:40;;;;;;;7.72;5.38;;;31.20;47.10;;;;;;5031398;28;20107;-71
2023/03/24 12:56:17;;;;;;;6.88;4.82;;;31.60;45.80;;;;;;5045755;28;20034;-71
2023/03/24 12:58:47;;;;;;;7.65;5.50;;;31.60;45.30;;;;;;5028367;28;20563;-72
2023/03/24 13:01:28;;;;;;;6.78;5.38;;;31.30;45.10;;;;;;5044013;28;20401;-72
2023/03/24 13:03:59;;;;;;;7.40;4.53;;;31.30;45.10;;;;;;5034640;28;20138;-73
2023/03/24 13:06:43;;;;;;;6.53;4.90;;;31.60;44.40;;;;;;5038717;28;20404;-73
2023/03/24 13:09:15;;;;;;;6.68;4.30;;;32.40;43.70;;;;;;5040034;28;20097;-72
2023/03/24 13:12:11;;;;;;;6.78;4.82;;;32.60;43.00;;;;;;5049661;28;20091;-72
2023/03/24 13:14:59;;;;;;;6.17;4.50;;;32.70;43.30;;;;;;5024961;28;20042;-70